createdAt,value
2023-01-27T00:00:19.755Z,20.63
2023-01-27T00:03:09.035Z,20.10
2023-01-27T00:05:58.683Z,20.50
2023-01-27T00:08:47.296Z,19.43
2023-01-27T00:11:53.548Z,20.67
2023-01-27T00:14:43.593Z,19.83
2023-01-27T00:17:32.386Z,20.27
2023-01-27T00:20:42.899Z,19.67
2023-01-27T00:23:49.325Z,19.67
2023-01-27T00:26:38.054Z,20.47
2023-01-27T00:29:26.712Z,18.47
2023-01-27T00:32:34.000Z,18.30
2023-01-27T00:35:22.880Z,19.10
2023-01-27T00:38:11.512Z,18.03
2023-01-27T00:41:20.597Z,18.67
2023-01-27T00:44:13.184Z,18.27
2023-01-27T00:47:02.527Z,18.50
2023-01-27T00:49:53.179Z,18.63
2023-01-27T00:52:41.921Z,17.53
2023-01-27T00:55:31.455Z,18.13
2023-01-27T00:58:22.501Z,17.13
2023-01-27T01:01:14.759Z,16.97
2023-01-27T01:04:03.753Z,16.90
2023-01-27T01:06:54.539Z,16.80
2023-01-27T01:09:43.177Z,17.00
2023-01-27T01:12:31.877Z,16.90
2023-01-27T01:15:20.566Z,16.50
2023-01-27T01:18:10.528Z,16.97
2023-01-27T01:20:59.212Z,16.73
2023-01-27T01:23:49.591Z,17.33
2023-01-27T01:26:38.344Z,17.50
2023-01-27T01:29:27.650Z,18.43
2023-01-27T01:32:16.240Z,18.27
2023-01-27T01:35:05.717Z,17.23
2023-01-27T01:37:54.839Z,19.63
2023-01-27T01:40:45.675Z,18.53
2023-01-27T01:43:35.224Z,19.40
2023-01-27T01:46:23.959Z,20.50
2023-01-27T01:49:12.795Z,20.37
2023-01-27T01:52:06.947Z,21.03
2023-01-27T01:54:58.580Z,20.93
2023-01-27T01:57:49.001Z,20.73
2023-01-27T02:00:38.353Z,20.77
2023-01-27T02:03:32.241Z,20.67
2023-01-27T02:06:21.789Z,21.07
2023-01-27T02:09:12.154Z,20.30
2023-01-27T02:12:01.646Z,20.57
2023-01-27T02:14:52.169Z,20.13
2023-01-27T02:17:43.614Z,19.80
2023-01-27T02:20:38.471Z,20.50
2023-01-27T02:23:38.214Z,20.93
2023-01-27T02:26:32.344Z,20.70
2023-01-27T02:29:22.942Z,20.13
2023-01-27T02:32:24.415Z,21.07
2023-01-27T02:35:20.864Z,20.63
2023-01-27T02:38:12.825Z,21.33
2023-01-27T02:41:06.131Z,20.47
2023-01-27T02:43:57.058Z,21.33
2023-01-27T02:46:45.820Z,20.77
2023-01-27T02:49:34.981Z,20.40
2023-01-27T02:52:24.455Z,21.43
2023-01-27T02:55:14.880Z,21.00
2023-01-27T02:58:03.778Z,20.60
2023-01-27T03:01:01.461Z,21.30
2023-01-27T03:03:51.391Z,19.93
2023-01-27T03:06:41.241Z,21.03
2023-01-27T03:09:31.415Z,20.60
2023-01-27T03:12:23.044Z,20.37
2023-01-27T03:15:30.417Z,21.57
2023-01-27T03:18:21.355Z,20.67
2023-01-27T03:21:11.510Z,20.43
2023-01-27T03:24:00.576Z,20.60
2023-01-27T03:26:49.600Z,21.13
2023-01-27T03:29:58.411Z,20.47
2023-01-27T03:32:51.887Z,19.27
2023-01-27T03:36:32.324Z,19.97
2023-01-27T03:39:38.324Z,20.43
2023-01-27T03:42:44.507Z,19.93
2023-01-27T03:45:50.473Z,20.57
2023-01-27T03:48:39.577Z,21.77
2023-01-27T03:51:30.147Z,21.30
2023-01-27T03:54:18.781Z,20.03
2023-01-27T03:57:07.502Z,19.93
2023-01-27T04:00:01.631Z,20.10
2023-01-27T04:03:07.834Z,20.67
2023-01-27T04:06:14.124Z,21.23
2023-01-27T04:09:06.249Z,20.07
2023-01-27T04:11:56.308Z,20.73
2023-01-27T04:14:45.467Z,19.43
2023-01-27T04:17:38.937Z,20.73
2023-01-27T04:20:27.706Z,19.80
2023-01-27T04:23:16.359Z,19.13
2023-01-27T04:26:06.678Z,18.27
2023-01-27T04:28:55.340Z,16.93
2023-01-27T04:31:44.260Z,18.17
2023-01-27T04:34:33.431Z,18.17
2023-01-27T04:37:22.254Z,20.40
2023-01-27T04:40:12.318Z,21.10
2023-01-27T04:43:02.549Z,20.83
2023-01-27T04:45:51.334Z,21.03
2023-01-27T04:48:39.949Z,23.53
2023-01-27T04:51:28.901Z,25.47
2023-01-27T04:54:17.541Z,28.40
2023-01-27T04:57:06.195Z,33.47
2023-01-27T04:59:56.670Z,35.40
2023-01-27T05:02:46.182Z,34.30
2023-01-27T05:05:34.814Z,35.60
2023-01-27T05:08:23.421Z,37.60
2023-01-27T05:11:13.162Z,37.40
2023-01-27T05:14:02.136Z,37.53
2023-01-27T05:16:55.843Z,38.73
2023-01-27T05:19:44.610Z,37.90
2023-01-27T05:22:33.289Z,38.57
2023-01-27T05:25:21.909Z,40.07
2023-01-27T05:28:10.759Z,39.10
2023-01-27T05:31:03.543Z,41.07
2023-01-27T05:33:55.223Z,40.33
2023-01-27T05:36:43.899Z,40.53
2023-01-27T05:39:32.883Z,40.17
2023-01-27T05:42:21.713Z,39.77
2023-01-27T05:45:11.485Z,39.77
2023-01-27T05:48:00.140Z,40.00
2023-01-27T05:51:00.462Z,39.97
2023-01-27T05:53:49.173Z,42.20
2023-01-27T05:56:37.976Z,41.30
2023-01-27T05:59:26.697Z,40.47
2023-01-27T06:02:15.761Z,39.77
2023-01-27T06:05:04.771Z,40.93
2023-01-27T06:07:56.825Z,42.37
2023-01-27T06:10:46.572Z,39.87
2023-01-27T06:13:36.114Z,37.63
2023-01-27T06:16:25.271Z,39.53
2023-01-27T06:19:14.005Z,39.30
2023-01-27T06:22:03.167Z,39.13
2023-01-27T06:24:53.119Z,37.70
2023-01-27T06:27:41.768Z,38.47
2023-01-27T06:30:31.253Z,38.40
2023-01-27T06:33:19.995Z,38.93
2023-01-27T06:36:11.328Z,37.67
2023-01-27T06:39:00.142Z,36.37
2023-01-27T06:41:51.020Z,36.17
2023-01-27T06:44:39.640Z,37.67
2023-01-27T06:47:30.665Z,39.27
2023-01-27T06:50:22.971Z,37.27
2023-01-27T06:53:11.982Z,37.27
2023-01-27T06:56:02.433Z,36.47
2023-01-27T06:58:52.570Z,35.37
2023-01-27T07:01:41.233Z,33.90
2023-01-27T07:04:31.193Z,33.93
2023-01-27T07:07:20.033Z,33.90
2023-01-27T07:10:10.208Z,32.97
2023-01-27T07:13:07.052Z,33.53
2023-01-27T07:15:57.798Z,35.50
2023-01-27T07:18:46.492Z,33.50
2023-01-27T07:21:35.340Z,34.00
2023-01-27T07:24:24.176Z,34.10
2023-01-27T07:27:12.793Z,33.70
2023-01-27T07:30:01.562Z,35.40
2023-01-27T07:32:55.462Z,34.53
2023-01-27T07:35:44.251Z,34.50
2023-01-27T07:38:33.488Z,34.20
2023-01-27T07:41:23.135Z,33.27
2023-01-27T07:44:12.003Z,31.57
2023-01-27T07:47:01.469Z,32.17
2023-01-27T07:49:51.603Z,33.40
2023-01-27T07:52:40.151Z,30.17
2023-01-27T07:55:29.118Z,30.63
2023-01-27T07:58:17.891Z,31.47
2023-01-27T08:01:08.121Z,32.83
2023-01-27T08:03:56.810Z,30.13
2023-01-27T08:06:47.138Z,27.67
2023-01-27T08:09:35.829Z,27.27
2023-01-27T08:12:24.683Z,26.47
2023-01-27T08:15:14.780Z,26.43
2023-01-27T08:18:04.131Z,25.83
2023-01-27T08:20:54.552Z,24.23
2023-01-27T08:23:44.656Z,25.07
2023-01-27T08:26:33.315Z,24.30
2023-01-27T08:29:22.005Z,25.47
2023-01-27T08:32:13.481Z,22.57
2023-01-27T08:35:03.579Z,23.00
2023-01-27T08:37:52.453Z,24.17
2023-01-27T08:40:43.301Z,26.13
2023-01-27T08:43:32.493Z,22.63
2023-01-27T08:46:21.245Z,25.47
2023-01-27T08:49:09.907Z,23.40
2023-01-27T08:51:58.641Z,23.53
2023-01-27T08:54:47.337Z,25.73
2023-01-27T08:57:37.961Z,25.70
2023-01-27T09:00:27.230Z,25.40
2023-01-27T09:03:15.918Z,25.60
2023-01-27T09:06:05.082Z,23.63
2023-01-27T09:09:09.429Z,24.43
2023-01-27T09:12:00.052Z,25.07
2023-01-27T09:14:50.054Z,24.40
2023-01-27T09:17:38.826Z,26.07
2023-01-27T09:20:27.464Z,24.37
2023-01-27T09:23:16.135Z,22.53
2023-01-27T09:26:04.796Z,24.63
2023-01-27T09:28:53.486Z,21.57
2023-01-27T09:31:43.669Z,23.60
2023-01-27T09:34:32.898Z,22.63
2023-01-27T09:37:21.635Z,24.03
2023-01-27T09:40:19.689Z,23.23
2023-01-27T09:43:33.741Z,22.13
2023-01-27T09:47:00.037Z,23.73
2023-01-27T09:50:06.623Z,22.87
2023-01-27T09:53:26.906Z,23.27
2023-01-27T09:56:23.829Z,21.63
2023-01-27T09:59:25.161Z,23.87
2023-01-27T10:02:29.192Z,22.57
2023-01-27T10:05:41.481Z,15.57
2023-01-27T10:08:54.827Z,17.20
2023-01-27T10:11:52.886Z,19.73
2023-01-27T10:14:49.489Z,17.00
2023-01-27T10:17:48.167Z,19.03
2023-01-27T10:20:42.986Z,19.70
2023-01-27T10:23:43.655Z,19.57
2023-01-27T10:26:37.160Z,21.00
2023-01-27T10:29:27.309Z,20.40
2023-01-27T10:32:26.826Z,18.93
2023-01-27T10:35:21.085Z,18.10
2023-01-27T10:38:18.621Z,18.33
2023-01-27T10:41:20.006Z,18.87
2023-01-27T10:44:38.603Z,19.83
2023-01-27T10:47:43.561Z,19.50
2023-01-27T10:50:38.844Z,18.97
2023-01-27T10:53:33.807Z,18.63
2023-01-27T10:56:32.722Z,18.53
2023-01-27T10:59:28.675Z,18.47
2023-01-27T11:02:26.578Z,18.77
2023-01-27T11:05:20.075Z,18.33
2023-01-27T11:08:17.595Z,19.13
2023-01-27T11:11:27.298Z,20.43
2023-01-27T11:14:20.211Z,20.73
2023-01-27T11:17:17.280Z,20.00
2023-01-27T11:20:13.927Z,20.47
2023-01-27T11:23:12.082Z,19.93
2023-01-27T11:26:08.755Z,22.70
2023-01-27T11:29:09.764Z,25.37
2023-01-27T11:32:05.158Z,22.77
2023-01-27T11:35:03.165Z,24.80
2023-01-27T11:38:00.653Z,27.87
2023-01-27T11:40:55.919Z,26.90
2023-01-27T11:43:46.510Z,26.17
2023-01-27T11:46:36.448Z,27.10
2023-01-27T11:49:28.716Z,28.30
2023-01-27T11:52:21.177Z,26.87
2023-01-27T11:55:17.945Z,27.80
2023-01-27T11:58:14.943Z,26.50
2023-01-27T12:01:11.176Z,25.40
2023-01-27T12:04:04.887Z,24.80
2023-01-27T12:06:57.972Z,23.70
2023-01-27T12:09:46.735Z,24.13
2023-01-27T12:12:39.164Z,22.03
2023-01-27T12:15:31.251Z,22.20
2023-01-27T12:18:23.726Z,24.40
2023-01-27T12:21:12.816Z,26.13
2023-01-27T12:24:02.518Z,26.47
2023-01-27T12:26:54.902Z,29.80
2023-01-27T12:29:48.782Z,28.70
2023-01-27T12:32:41.739Z,28.73
2023-01-27T12:35:35.975Z,29.23
2023-01-27T12:38:27.676Z,29.70
2023-01-27T12:41:23.977Z,30.43
2023-01-27T12:44:18.398Z,31.47
2023-01-27T12:47:24.769Z,31.47
2023-01-27T12:50:24.701Z,30.03
2023-01-27T12:53:16.432Z,32.17
2023-01-27T12:56:13.367Z,30.67
2023-01-27T12:59:03.812Z,32.50
2023-01-27T13:02:01.856Z,32.33
2023-01-27T13:04:54.341Z,28.07
2023-01-27T13:07:46.748Z,29.67
2023-01-27T13:10:37.047Z,29.80
2023-01-27T13:13:28.004Z,30.20
2023-01-27T13:16:29.685Z,30.70
2023-01-27T13:19:20.178Z,29.80
2023-01-27T13:22:11.540Z,29.90
2023-01-27T13:25:03.338Z,31.90
2023-01-27T13:27:59.234Z,35.13
2023-01-27T13:30:52.600Z,35.00
2023-01-27T13:33:48.043Z,36.73
2023-01-27T13:36:41.626Z,34.10
2023-01-27T13:39:44.272Z,34.57
2023-01-27T13:42:41.141Z,33.57
2023-01-27T13:45:40.341Z,33.03
2023-01-27T13:48:34.088Z,34.97
2023-01-27T13:51:25.206Z,33.47
2023-01-27T13:54:16.771Z,32.97
2023-01-27T13:57:36.985Z,32.83
2023-01-27T14:00:33.813Z,35.20
2023-01-27T14:04:06.128Z,34.70
2023-01-27T14:07:03.773Z,36.40
2023-01-27T14:10:05.105Z,37.30
2023-01-27T14:13:08.504Z,37.73
2023-01-27T14:16:08.732Z,37.30
2023-01-27T14:19:03.829Z,34.47
2023-01-27T14:21:58.316Z,36.27
2023-01-27T14:24:53.985Z,35.80
2023-01-27T14:27:47.887Z,33.80
2023-01-27T14:30:41.529Z,34.77
2023-01-27T14:33:44.713Z,36.87
2023-01-27T14:36:41.581Z,37.33
2023-01-27T14:39:40.203Z,37.17
2023-01-27T14:42:37.503Z,35.93
2023-01-27T14:45:30.280Z,38.90
2023-01-27T14:48:41.792Z,37.17
2023-01-27T14:51:40.229Z,36.43
2023-01-27T14:54:53.725Z,34.83
2023-01-27T14:57:53.244Z,36.67
2023-01-27T15:00:50.489Z,36.40
2023-01-27T15:04:08.959Z,36.13
2023-01-27T15:07:07.387Z,36.27
2023-01-27T15:10:07.312Z,35.77
2023-01-27T15:13:39.710Z,35.53
2023-01-27T15:16:39.578Z,34.17
2023-01-27T15:19:48.787Z,34.30
2023-01-27T15:23:03.073Z,34.90
2023-01-27T15:25:55.115Z,36.07
2023-01-27T15:28:45.678Z,36.70
2023-01-27T15:31:34.938Z,36.93
2023-01-27T15:34:24.614Z,37.67
2023-01-27T15:37:23.779Z,36.33
2023-01-27T15:40:18.595Z,37.50
2023-01-27T15:43:15.528Z,36.87
2023-01-27T15:46:25.394Z,38.70
2023-01-27T15:49:20.644Z,38.97
2023-01-27T15:52:26.426Z,38.97
2023-01-27T15:55:28.816Z,39.50
2023-01-27T15:58:28.801Z,40.67
2023-01-27T16:01:27.818Z,39.80
2023-01-27T16:04:19.439Z,39.90
2023-01-27T16:07:23.161Z,41.13
2023-01-27T16:10:21.260Z,40.10
2023-01-27T16:13:28.165Z,43.77
2023-01-27T16:16:36.261Z,42.00
2023-01-27T16:19:30.507Z,42.47
2023-01-27T16:22:20.840Z,42.30
2023-01-27T16:25:22.851Z,43.07
2023-01-27T16:28:19.404Z,42.57
2023-01-27T16:31:17.616Z,41.90
2023-01-27T16:34:16.195Z,43.10
2023-01-27T16:37:16.751Z,41.47
2023-01-27T16:40:09.658Z,42.60
2023-01-27T16:43:03.429Z,42.93
2023-01-27T16:45:54.112Z,41.13
2023-01-27T16:48:48.062Z,40.07
2023-01-27T16:51:36.807Z,40.93
2023-01-27T16:54:27.941Z,38.87
2023-01-27T16:57:30.382Z,42.60
2023-01-27T17:00:23.015Z,42.63
2023-01-27T17:03:16.932Z,43.27
2023-01-27T17:06:10.340Z,42.67
2023-01-27T17:08:59.188Z,44.10
2023-01-27T17:11:47.866Z,42.70
2023-01-27T17:14:38.563Z,43.93
2023-01-27T17:17:29.001Z,43.83
2023-01-27T17:20:31.172Z,45.43
2023-01-27T17:23:31.633Z,44.10
2023-01-27T17:26:21.077Z,44.40
2023-01-27T17:29:18.416Z,46.20
2023-01-27T17:32:21.703Z,45.63
2023-01-27T17:35:23.038Z,45.00
2023-01-27T17:38:16.615Z,45.53
2023-01-27T17:41:23.791Z,45.33
2023-01-27T17:44:15.060Z,44.67
2023-01-27T17:47:04.324Z,46.53
2023-01-27T17:49:53.077Z,44.60
2023-01-27T17:52:52.186Z,45.13
2023-01-27T17:55:41.921Z,48.80
2023-01-27T17:58:45.111Z,45.77
2023-01-27T18:01:34.701Z,49.00
2023-01-27T18:04:28.389Z,47.40
2023-01-27T18:07:17.585Z,47.70
2023-01-27T18:10:24.980Z,49.00
2023-01-27T18:13:34.651Z,46.73
2023-01-27T18:16:26.287Z,46.17
2023-01-27T18:19:23.045Z,45.27
2023-01-27T18:22:15.230Z,45.47
2023-01-27T18:25:04.842Z,43.80
2023-01-27T18:27:55.336Z,45.57
2023-01-27T18:30:48.815Z,44.97
2023-01-27T18:33:40.466Z,45.57
2023-01-27T18:36:35.379Z,46.03
2023-01-27T18:39:36.039Z,45.10
2023-01-27T18:42:26.028Z,44.00
2023-01-27T18:45:19.066Z,44.13
2023-01-27T18:48:11.571Z,42.47
2023-01-27T18:51:01.811Z,41.83
2023-01-27T18:53:50.550Z,41.30
2023-01-27T18:56:39.254Z,40.93
2023-01-27T18:59:27.917Z,43.07
2023-01-27T19:02:17.659Z,40.23
2023-01-27T19:05:15.999Z,40.50
2023-01-27T19:08:07.239Z,40.20
2023-01-27T19:10:56.092Z,38.80
2023-01-27T19:13:45.314Z,38.07
2023-01-27T19:16:34.469Z,37.90
2023-01-27T19:19:23.235Z,39.20
2023-01-27T19:22:15.313Z,36.33
2023-01-27T19:25:05.987Z,37.03
2023-01-27T19:27:58.616Z,36.90
2023-01-27T19:30:48.573Z,39.03
2023-01-27T19:33:38.698Z,38.40
2023-01-27T19:36:31.302Z,39.03
2023-01-27T19:39:21.067Z,38.20
2023-01-27T19:42:14.654Z,39.07
2023-01-27T19:45:07.270Z,36.63
2023-01-27T19:48:00.035Z,38.10
2023-01-27T19:50:49.972Z,36.10
2023-01-27T19:53:39.169Z,35.80
2023-01-27T19:56:33.664Z,36.27
2023-01-27T19:59:23.741Z,35.17
2023-01-27T20:02:14.218Z,36.23
2023-01-27T20:05:03.102Z,36.83
2023-01-27T20:07:53.638Z,34.87
2023-01-27T20:10:42.386Z,35.43
2023-01-27T20:13:32.231Z,35.70
2023-01-27T20:16:26.895Z,35.00
2023-01-27T20:19:16.409Z,34.83
2023-01-27T20:22:05.148Z,36.73
2023-01-27T20:24:53.929Z,35.77
2023-01-27T20:27:43.748Z,37.40
2023-01-27T20:30:35.233Z,38.37
2023-01-27T20:33:25.303Z,38.27
2023-01-27T20:36:19.379Z,36.93
2023-01-27T20:39:08.244Z,36.93
2023-01-27T20:41:56.934Z,37.03
2023-01-27T20:44:45.730Z,35.57
2023-01-27T20:47:34.428Z,30.63
2023-01-27T20:50:26.260Z,30.43
2023-01-27T20:53:15.019Z,29.20
2023-01-27T20:56:04.809Z,28.80
2023-01-27T20:58:54.355Z,28.60
2023-01-27T21:01:44.782Z,27.83
2023-01-27T21:04:33.490Z,27.37
2023-01-27T21:07:24.462Z,29.47
2023-01-27T21:10:13.401Z,27.80
2023-01-27T21:13:02.409Z,29.23
2023-01-27T21:15:51.579Z,29.30
2023-01-27T21:18:40.220Z,29.87
2023-01-27T21:21:31.379Z,27.90
2023-01-27T21:24:24.682Z,29.50
2023-01-27T21:27:13.705Z,28.27
2023-01-27T21:30:02.620Z,29.33
2023-01-27T21:32:51.417Z,28.63
2023-01-27T21:35:40.391Z,28.63
2023-01-27T21:38:29.288Z,29.37
2023-01-27T21:41:45.980Z,28.53
2023-01-27T21:44:52.027Z,28.93
2023-01-27T21:47:40.675Z,26.47
2023-01-27T21:50:29.883Z,28.30
2023-01-27T21:53:18.550Z,28.37
2023-01-27T21:56:07.922Z,28.10
2023-01-27T21:58:58.651Z,29.20
2023-01-27T22:01:47.526Z,29.13
2023-01-27T22:04:36.231Z,29.10
2023-01-27T22:07:26.692Z,28.43
2023-01-27T22:10:17.343Z,29.27
2023-01-27T22:13:08.310Z,28.73
2023-01-27T22:15:58.491Z,28.77
2023-01-27T22:18:50.185Z,29.50
2023-01-27T22:21:38.982Z,29.33
2023-01-27T22:24:27.781Z,29.93
2023-01-27T22:27:16.460Z,29.13
2023-01-27T22:30:05.960Z,29.67
2023-01-27T22:32:56.030Z,29.43
2023-01-27T22:35:44.972Z,28.73
2023-01-27T22:38:37.975Z,30.53
2023-01-27T22:41:26.584Z,31.10
2023-01-27T22:44:16.088Z,29.90
2023-01-27T22:47:05.734Z,29.43
2023-01-27T22:49:55.806Z,29.93
2023-01-27T22:52:44.508Z,29.97
2023-01-27T22:55:33.236Z,28.27
2023-01-27T22:58:22.047Z,29.50
2023-01-27T23:01:11.162Z,29.67
2023-01-27T23:04:00.017Z,28.67
2023-01-27T23:06:50.082Z,29.60
2023-01-27T23:09:38.979Z,29.57
2023-01-27T23:12:27.642Z,27.40
2023-01-27T23:15:16.855Z,28.83
2023-01-27T23:18:11.425Z,29.87
2023-01-27T23:21:05.012Z,29.13
2023-01-27T23:23:55.620Z,29.10
2023-01-27T23:26:44.652Z,27.50
2023-01-27T23:29:33.324Z,28.50
2023-01-27T23:32:22.005Z,28.40
2023-01-27T23:35:14.267Z,27.90
2023-01-27T23:38:03.631Z,27.53
2023-01-27T23:40:55.302Z,26.03
2023-01-27T23:43:43.910Z,27.77
2023-01-27T23:46:32.900Z,28.30
2023-01-27T23:49:21.757Z,28.30
2023-01-27T23:52:10.583Z,27.23
2023-01-27T23:54:59.295Z,28.17
2023-01-27T23:57:49.353Z,28.23
